Time;durP1;ratioP1;P1;durP2;ratioP2;P2;SDS_P1;SDS_P2;PMS_P1;PMS_P2;Temp;Humidity;BMP_temperature;BMP_pressure;BME280_temperature;BME280_humidity;BME280_pressure;Samples;Min_cycle;Max_cycle;Signal;HPM_P1;HPM_P2
2022/06/25 00:02:19;;;;;;;0.57;0.52;;;;;;;;;;4987126;28;20061;-53
2022/06/25 00:07:31;;;;;;;0.40;0.40;;;;;;;;;;4987989;28;20042;-54
2022/06/25 00:09:58;;;;;;;0.50;0.50;;;;;;;;;;4987056;28;20474;-53
2022/06/25 00:12:33;;;;;;;0.52;0.52;;;;;;;;;;4986741;28;20129;-55
2022/06/25 00:15:06;;;;;;;0.60;0.60;;;;;;;;;;4987213;28;20040;-54
2022/06/25 00:17:33;;;;;;;0.60;0.60;;;;;;;;;;4987647;28;20036;-52
2022/06/25 00:19:59;;;;;;;0.65;0.50;;;;;;;;;;4987239;28;20034;-55
2022/06/25 00:22:26;;;;;;;0.50;0.50;;;;;;;;;;4986305;28;20080;-54
2022/06/25 00:24:52;;;;;;;0.63;0.52;;;;;;;;;;4986984;28;20037;-54
2022/06/25 00:27:18;;;;;;;0.40;0.40;;;;;;;;;;4986487;28;20344;-54
2022/06/25 00:29:44;;;;;;;0.60;0.60;;;;;;;;;;4984244;28;20117;-52
2022/06/25 00:32:10;;;;;;;0.50;0.50;;;;;;;;;;4987635;28;20034;-53
2022/06/25 00:34:37;;;;;;;0.50;0.50;;;;;;;;;;4987568;28;20450;-51
2022/06/25 00:37:03;;;;;;;0.40;0.40;;;;;;;;;;4985970;28;20688;-52
2022/06/25 00:39:29;;;;;;;1.38;0.60;;;;;;;;;;4987278;28;20474;-50
2022/06/25 00:41:55;;;;;;;0.60;0.60;;;;;;;;;;4988734;28;20467;-52
2022/06/25 00:44:21;;;;;;;0.50;0.50;;;;;;;;;;4986526;28;20030;-53
2022/06/25 00:46:48;;;;;;;0.90;0.60;;;;;;;;;;4988384;28;20054;-51
2022/06/25 00:49:14;;;;;;;0.50;0.50;;;;;;;;;;4988110;28;20251;-52
2022/06/25 00:51:41;;;;;;;0.50;0.50;;;;;;;;;;4987757;28;20397;-52
2022/06/25 00:54:09;;;;;;;0.90;0.75;;;;;;;;;;4988349;28;20045;-51
2022/06/25 00:56:37;;;;;;;0.68;0.68;;;;;;;;;;4988438;28;20034;-53
2022/06/25 00:59:04;;;;;;;0.85;0.50;;;;;;;;;;4988140;28;20841;-51
2022/06/25 01:01:32;;;;;;;0.50;0.50;;;;;;;;;;4987396;28;20030;-53
2022/06/25 01:03:58;;;;;;;0.70;0.70;;;;;;;;;;4987839;28;20041;-52
2022/06/25 01:06:25;;;;;;;0.60;0.60;;;;;;;;;;4987585;28;20084;-52
2022/06/25 01:08:51;;;;;;;0.70;0.60;;;;;;;;;;4988173;28;20022;-53
2022/06/25 01:11:17;;;;;;;0.70;0.68;;;;;;;;;;4988172;28;20045;-52
2022/06/25 01:13:43;;;;;;;0.60;0.60;;;;;;;;;;4988862;28;20561;-50
2022/06/25 01:16:09;;;;;;;0.65;0.65;;;;;;;;;;4987993;28;20493;-52
2022/06/25 01:18:35;;;;;;;0.73;0.70;;;;;;;;;;4987812;28;20064;-53
2022/06/25 01:21:01;;;;;;;0.50;0.50;;;;;;;;;;4987752;28;21034;-53
2022/06/25 01:23:28;;;;;;;0.60;0.60;;;;;;;;;;4988000;28;20675;-52
2022/06/25 01:25:54;;;;;;;0.80;0.80;;;;;;;;;;4987633;28;20060;-50
2022/06/25 01:28:20;;;;;;;0.70;0.70;;;;;;;;;;4986868;28;20036;-52
2022/06/25 01:30:47;;;;;;;0.60;0.55;;;;;;;;;;4987700;28;20034;-52
2022/06/25 01:33:13;;;;;;;0.65;0.60;;;;;;;;;;4988131;28;20391;-52
2022/06/25 01:35:39;;;;;;;0.68;0.68;;;;;;;;;;4987959;28;20041;-52
2022/06/25 01:38:05;;;;;;;0.55;0.55;;;;;;;;;;4986432;28;20035;-51
2022/06/25 01:40:33;;;;;;;0.52;0.52;;;;;;;;;;4987383;28;20064;-53
2022/06/25 01:42:59;;;;;;;0.93;0.85;;;;;;;;;;4987309;28;20038;-52
2022/06/25 01:45:33;;;;;;;0.60;0.60;;;;;;;;;;4985593;28;20378;-50
2022/06/25 01:47:59;;;;;;;0.40;0.40;;;;;;;;;;4986502;28;20133;-52
2022/06/25 01:50:26;;;;;;;0.52;0.52;;;;;;;;;;4987320;28;20058;-52
2022/06/25 01:52:52;;;;;;;0.52;0.52;;;;;;;;;;4987446;28;20117;-51
2022/06/25 01:55:19;;;;;;;0.52;0.52;;;;;;;;;;4986707;28;20034;-51
2022/06/25 01:57:45;;;;;;;0.40;0.40;;;;;;;;;;4986574;28;20497;-50
2022/06/25 02:00:14;;;;;;;0.60;0.60;;;;;;;;;;4986309;28;20552;-52
2022/06/25 02:02:42;;;;;;;0.63;0.63;;;;;;;;;;4986721;28;20058;-52
2022/06/25 02:05:08;;;;;;;0.60;0.60;;;;;;;;;;4986178;28;20026;-53
2022/06/25 02:07:34;;;;;;;0.50;0.43;;;;;;;;;;4987205;28;20057;-52
2022/06/25 02:10:00;;;;;;;0.50;0.50;;;;;;;;;;4987061;28;20034;-53
2022/06/25 02:12:27;;;;;;;0.63;0.63;;;;;;;;;;4987418;28;20037;-52
2022/06/25 02:14:53;;;;;;;0.60;0.60;;;;;;;;;;4986453;28;20657;-52
2022/06/25 02:17:19;;;;;;;1.15;0.60;;;;;;;;;;4986716;28;20617;-52
2022/06/25 02:19:45;;;;;;;0.60;0.60;;;;;;;;;;4986893;28;20088;-52
2022/06/25 02:22:14;;;;;;;1.35;0.60;;;;;;;;;;4986798;28;20415;-53
2022/06/25 02:24:43;;;;;;;0.55;0.55;;;;;;;;;;4986748;28;20030;-51
2022/06/25 02:27:09;;;;;;;0.52;0.52;;;;;;;;;;4986798;28;20054;-52
2022/06/25 02:29:36;;;;;;;0.80;0.50;;;;;;;;;;4987259;28;20054;-52
2022/06/25 02:32:02;;;;;;;0.50;0.50;;;;;;;;;;4986840;28;20128;-52
2022/06/25 02:34:28;;;;;;;0.50;0.50;;;;;;;;;;4986262;28;20026;-52
2022/06/25 02:36:54;;;;;;;0.95;0.68;;;;;;;;;;4986629;28;20045;-51
2022/06/25 02:39:20;;;;;;;0.50;0.50;;;;;;;;;;4986297;28;20377;-52
2022/06/25 02:41:46;;;;;;;0.60;0.60;;;;;;;;;;4987547;28;20081;-52
2022/06/25 02:44:13;;;;;;;1.63;1.45;;;;;;;;;;4986456;28;20417;-51
2022/06/25 02:46:39;;;;;;;0.60;0.60;;;;;;;;;;4986749;28;20037;-52
2022/06/25 02:49:05;;;;;;;0.43;0.43;;;;;;;;;;4986238;28;20709;-53
2022/06/25 02:51:31;;;;;;;0.60;0.60;;;;;;;;;;4986183;28;20036;-52
2022/06/25 02:53:57;;;;;;;0.60;0.60;;;;;;;;;;4985980;28;20084;-52
2022/06/25 02:59:08;;;;;;;0.57;0.57;;;;;;;;;;4986360;28;20041;-52
2022/06/25 03:01:34;;;;;;;0.68;0.68;;;;;;;;;;4986657;28;20038;-53
2022/06/25 03:04:00;;;;;;;0.90;0.70;;;;;;;;;;4985925;28;20410;-51
2022/06/25 03:06:27;;;;;;;0.60;0.60;;;;;;;;;;4986646;28;20022;-50
2022/06/25 03:08:53;;;;;;;0.70;0.70;;;;;;;;;;4987645;28;20030;-52
2022/06/25 03:11:20;;;;;;;0.80;0.80;;;;;;;;;;4990252;28;20030;-52
2022/06/25 03:13:46;;;;;;;0.63;0.63;;;;;;;;;;4990469;28;20019;-51
2022/06/25 03:16:12;;;;;;;0.70;0.70;;;;;;;;;;4990685;28;20034;-52
2022/06/25 03:18:39;;;;;;;0.60;0.60;;;;;;;;;;4990131;28;20018;-52
2022/06/25 03:21:05;;;;;;;0.95;0.70;;;;;;;;;;4989535;28;20391;-51
2022/06/25 03:23:31;;;;;;;0.73;0.73;;;;;;;;;;4990108;28;20030;-52
2022/06/25 03:25:57;;;;;;;0.90;0.80;;;;;;;;;;4990263;28;20027;-53
2022/06/25 03:28:23;;;;;;;0.60;0.60;;;;;;;;;;4990177;28;20030;-48
2022/06/25 03:30:49;;;;;;;0.80;0.70;;;;;;;;;;4989824;28;20058;-52
2022/06/25 03:33:15;;;;;;;2.15;0.77;;;;;;;;;;4988810;28;20536;-52
2022/06/25 03:35:41;;;;;;;0.60;0.60;;;;;;;;;;4989232;28;20030;-52
2022/06/25 03:38:08;;;;;;;0.80;0.80;;;;;;;;;;4989709;28;20065;-51
2022/06/25 03:40:34;;;;;;;0.60;0.60;;;;;;;;;;4989907;28;20046;-52
2022/06/25 03:43:00;;;;;;;0.73;0.73;;;;;;;;;;4989454;28;20500;-51
2022/06/25 03:45:26;;;;;;;0.57;0.57;;;;;;;;;;4989905;28;20093;-51
2022/06/25 03:47:52;;;;;;;0.68;0.68;;;;;;;;;;4989446;28;20026;-52
2022/06/25 03:50:19;;;;;;;0.93;0.85;;;;;;;;;;4989513;28;20125;-48
2022/06/25 03:52:46;;;;;;;0.70;0.70;;;;;;;;;;4989670;28;20066;-52
2022/06/25 03:55:12;;;;;;;1.00;0.90;;;;;;;;;;4989273;28;20117;-52
2022/06/25 03:57:38;;;;;;;1.05;0.65;;;;;;;;;;4989625;28;20101;-52
2022/06/25 04:00:08;;;;;;;0.80;0.80;;;;;;;;;;4988603;28;20073;-53
2022/06/25 04:02:35;;;;;;;0.80;0.80;;;;;;;;;;4988651;28;20034;-52
2022/06/25 04:05:01;;;;;;;0.70;0.70;;;;;;;;;;4989209;28;20433;-53
2022/06/25 04:07:27;;;;;;;0.60;0.60;;;;;;;;;;4989119;28;20030;-49
2022/06/25 04:09:53;;;;;;;0.68;0.68;;;;;;;;;;4989487;28;20034;-53
2022/06/25 04:12:19;;;;;;;0.68;0.68;;;;;;;;;;4988391;28;20030;-52
2022/06/25 04:14:45;;;;;;;0.95;0.70;;;;;;;;;;4988599;28;20482;-52
2022/06/25 04:17:12;;;;;;;0.60;0.60;;;;;;;;;;4988803;28;20073;-52
2022/06/25 04:19:41;;;;;;;0.70;0.70;;;;;;;;;;4988066;28;20038;-49
2022/06/25 04:22:08;;;;;;;1.02;0.73;;;;;;;;;;4988955;28;20105;-48
2022/06/25 04:24:35;;;;;;;0.60;0.60;;;;;;;;;;4988995;28;20045;-50
2022/06/25 04:27:01;;;;;;;0.70;0.70;;;;;;;;;;4988199;28;20030;-51
2022/06/25 04:29:28;;;;;;;0.63;0.60;;;;;;;;;;4988442;28;20038;-52
2022/06/25 04:31:54;;;;;;;0.60;0.60;;;;;;;;;;4988705;28;20607;-51
2022/06/25 04:34:20;;;;;;;0.90;0.80;;;;;;;;;;4987908;28;20034;-50
2022/06/25 04:36:46;;;;;;;0.95;0.90;;;;;;;;;;4987965;28;20818;-51
2022/06/25 04:39:12;;;;;;;0.63;0.63;;;;;;;;;;4987896;28;20448;-51
2022/06/25 04:41:38;;;;;;;0.80;0.80;;;;;;;;;;4988583;28;20095;-51
2022/06/25 04:44:04;;;;;;;1.13;0.80;;;;;;;;;;4986101;28;20501;-51
2022/06/25 04:46:30;;;;;;;0.80;0.80;;;;;;;;;;4987831;28;20037;-52
2022/06/25 04:48:59;;;;;;;0.70;0.70;;;;;;;;;;4986553;28;20034;-49
2022/06/25 04:51:26;;;;;;;0.75;0.75;;;;;;;;;;4987516;28;20026;-52
2022/06/25 04:53:55;;;;;;;1.02;0.93;;;;;;;;;;4986518;28;20054;-52
2022/06/25 04:56:31;;;;;;;0.68;0.68;;;;;;;;;;4988228;28;20398;-51
2022/06/25 04:58:57;;;;;;;1.50;0.57;;;;;;;;;;4988174;28;20019;-49
2022/06/25 05:01:24;;;;;;;0.70;0.70;;;;;;;;;;4988391;28;20023;-52
2022/06/25 05:03:50;;;;;;;0.88;0.65;;;;;;;;;;4988027;28;20034;-51
2022/06/25 05:06:16;;;;;;;0.70;0.70;;;;;;;;;;4987266;28;20029;-51
2022/06/25 05:08:42;;;;;;;0.85;0.85;;;;;;;;;;4988920;28;20027;-52
2022/06/25 05:11:08;;;;;;;0.73;0.70;;;;;;;;;;4987091;28;20076;-51
2022/06/25 05:13:35;;;;;;;0.70;0.70;;;;;;;;;;4988329;28;20060;-52
2022/06/25 05:16:01;;;;;;;0.75;0.70;;;;;;;;;;4987624;28;20034;-52
2022/06/25 05:18:27;;;;;;;0.60;0.60;;;;;;;;;;4985763;28;20101;-49
2022/06/25 05:20:53;;;;;;;0.80;0.80;;;;;;;;;;4987952;28;20040;-52
2022/06/25 05:23:20;;;;;;;0.60;0.60;;;;;;;;;;4987878;28;20018;-52
2022/06/25 05:25:46;;;;;;;0.70;0.70;;;;;;;;;;4987769;28;20105;-52
2022/06/25 05:28:12;;;;;;;0.95;0.77;;;;;;;;;;4988327;28;20560;-51
2022/06/25 05:30:38;;;;;;;0.70;0.70;;;;;;;;;;4987589;28;20728;-52
2022/06/25 05:33:04;;;;;;;0.50;0.50;;;;;;;;;;4987503;28;20081;-49
2022/06/25 05:35:30;;;;;;;0.50;0.50;;;;;;;;;;4986547;28;20038;-50
2022/06/25 05:37:57;;;;;;;0.73;0.70;;;;;;;;;;4987724;28;20037;-52
2022/06/25 05:40:23;;;;;;;0.63;0.60;;;;;;;;;;4987756;28;20665;-50
2022/06/25 05:42:49;;;;;;;0.50;0.50;;;;;;;;;;4987124;28;20038;-52
2022/06/25 05:45:15;;;;;;;0.47;0.47;;;;;;;;;;4987789;28;20022;-50
2022/06/25 05:47:41;;;;;;;0.98;0.60;;;;;;;;;;4988332;28;20034;-51
2022/06/25 05:50:07;;;;;;;0.50;0.50;;;;;;;;;;4986872;28;20077;-51
2022/06/25 05:52:33;;;;;;;1.42;0.73;;;;;;;;;;4986946;28;20679;-52
2022/06/25 05:55:00;;;;;;;0.70;0.63;;;;;;;;;;4986940;28;20050;-52
2022/06/25 05:57:26;;;;;;;0.50;0.50;;;;;;;;;;4987069;28;20485;-50
2022/06/25 05:59:52;;;;;;;1.20;0.60;;;;;;;;;;4986979;28;20113;-52
2022/06/25 06:02:18;;;;;;;0.45;0.45;;;;;;;;;;4985965;28;20030;-52
2022/06/25 06:04:44;;;;;;;0.70;0.70;;;;;;;;;;4987885;28;20453;-52
2022/06/25 06:07:10;;;;;;;0.55;0.55;;;;;;;;;;4987490;28;20038;-52
2022/06/25 06:09:36;;;;;;;0.57;0.55;;;;;;;;;;4987439;28;20029;-52
2022/06/25 06:12:03;;;;;;;0.50;0.50;;;;;;;;;;4986068;28;20062;-52
2022/06/25 06:14:29;;;;;;;0.40;0.40;;;;;;;;;;4987086;28;20032;-51
2022/06/25 06:16:56;;;;;;;0.40;0.40;;;;;;;;;;4987295;28;20489;-50
2022/06/25 06:19:22;;;;;;;0.60;0.60;;;;;;;;;;4967637;28;20026;-52
2022/06/25 06:21:48;;;;;;;0.45;0.45;;;;;;;;;;4979292;28;20401;-52
2022/06/25 06:24:14;;;;;;;0.40;0.40;;;;;;;;;;4987379;28;20433;-52
2022/06/25 06:26:40;;;;;;;0.32;0.32;;;;;;;;;;4985176;28;20649;-52
2022/06/25 06:29:06;;;;;;;0.40;0.40;;;;;;;;;;4986431;28;20398;-53
2022/06/25 06:31:33;;;;;;;0.63;0.50;;;;;;;;;;4982975;28;20030;-52
2022/06/25 06:33:59;;;;;;;0.52;0.50;;;;;;;;;;4986669;28;20471;-52
2022/06/25 06:36:25;;;;;;;0.65;0.40;;;;;;;;;;4980548;28;20074;-52
2022/06/25 06:38:51;;;;;;;0.30;0.30;;;;;;;;;;4986892;28;20057;-52
2022/06/25 06:41:17;;;;;;;0.45;0.40;;;;;;;;;;4985179;28;20045;-52
2022/06/25 06:43:44;;;;;;;0.30;0.30;;;;;;;;;;4988923;28;20030;-53
2022/06/25 06:46:12;;;;;;;0.40;0.40;;;;;;;;;;4988421;28;20092;-53
2022/06/25 06:48:38;;;;;;;1.33;0.40;;;;;;;;;;4989282;28;20018;-53
2022/06/25 06:51:04;;;;;;;0.30;0.30;;;;;;;;;;4989735;28;20564;-53
2022/06/25 06:53:30;;;;;;;0.32;0.32;;;;;;;;;;4988799;28;20564;-53
2022/06/25 06:55:56;;;;;;;1.13;0.40;;;;;;;;;;4991237;28;20568;-50
2022/06/25 06:58:22;;;;;;;0.35;0.30;;;;;;;;;;4989414;28;20034;-51
2022/06/25 07:00:48;;;;;;;0.22;0.22;;;;;;;;;;4985529;28;20508;-50
2022/06/25 07:03:14;;;;;;;1.30;0.57;;;;;;;;;;4989730;28;20557;-54
2022/06/25 07:05:40;;;;;;;0.30;0.30;;;;;;;;;;4989833;28;20026;-52
2022/06/25 07:08:06;;;;;;;0.47;0.47;;;;;;;;;;4987893;28;20656;-53
2022/06/25 07:10:32;;;;;;;0.30;0.30;;;;;;;;;;4989425;28;20038;-52
2022/06/25 07:12:58;;;;;;;0.30;0.30;;;;;;;;;;4989308;28;20026;-52
2022/06/25 07:15:24;;;;;;;0.30;0.30;;;;;;;;;;4990136;28;20658;-53
2022/06/25 07:17:50;;;;;;;0.30;0.30;;;;;;;;;;4990002;28;20033;-53
2022/06/25 07:20:17;;;;;;;0.30;0.30;;;;;;;;;;4990165;28;20595;-51
2022/06/25 07:22:43;;;;;;;0.30;0.30;;;;;;;;;;4989366;28;20041;-51
2022/06/25 07:25:09;;;;;;;0.30;0.30;;;;;;;;;;4990123;28;20480;-52
2022/06/25 07:27:35;;;;;;;0.40;0.40;;;;;;;;;;4990273;28;20025;-54
2022/06/25 07:30:01;;;;;;;0.30;0.30;;;;;;;;;;4989962;28;20563;-54
2022/06/25 07:32:27;;;;;;;0.32;0.32;;;;;;;;;;4989634;28;20458;-53
2022/06/25 07:34:53;;;;;;;0.30;0.30;;;;;;;;;;4989227;28;20034;-53
2022/06/25 07:37:19;;;;;;;0.43;0.43;;;;;;;;;;4988184;28;20540;-54
2022/06/25 07:39:45;;;;;;;0.30;0.30;;;;;;;;;;4989641;28;20621;-54
2022/06/25 07:42:11;;;;;;;0.28;0.28;;;;;;;;;;4989401;28;20040;-54
2022/06/25 07:44:37;;;;;;;0.30;0.30;;;;;;;;;;4989735;28;20514;-54
2022/06/25 07:47:03;;;;;;;0.47;0.45;;;;;;;;;;4988639;28;20037;-54
2022/06/25 07:49:29;;;;;;;0.30;0.30;;;;;;;;;;4990405;28;20037;-54
2022/06/25 07:52:02;;;;;;;0.20;0.20;;;;;;;;;;4989749;28;20749;-53
2022/06/25 07:54:29;;;;;;;0.30;0.30;;;;;;;;;;4990101;28;20041;-54
2022/06/25 07:56:55;;;;;;;0.20;0.20;;;;;;;;;;4989364;28;20033;-53
2022/06/25 07:59:22;;;;;;;0.32;0.32;;;;;;;;;;4989272;28;20070;-54
2022/06/25 08:01:48;;;;;;;0.30;0.30;;;;;;;;;;4989672;28;20027;-54
2022/06/25 08:04:15;;;;;;;0.30;0.30;;;;;;;;;;4989330;28;20101;-52
2022/06/25 08:06:41;;;;;;;0.40;0.40;;;;;;;;;;4989302;28;20568;-53
2022/06/25 08:09:10;;;;;;;0.40;0.40;;;;;;;;;;4988078;28;20054;-53
2022/06/25 08:11:37;;;;;;;0.20;0.20;;;;;;;;;;4989231;28;20046;-53
2022/06/25 08:14:04;;;;;;;0.30;0.30;;;;;;;;;;4989063;28;20026;-54
2022/06/25 08:16:30;;;;;;;0.30;0.30;;;;;;;;;;4990043;28;20069;-54
2022/06/25 08:18:57;;;;;;;0.30;0.30;;;;;;;;;;4988284;28;20101;-54
2022/06/25 08:21:23;;;;;;;0.20;0.20;;;;;;;;;;4989161;28;20037;-54
2022/06/25 08:23:49;;;;;;;0.20;0.20;;;;;;;;;;4984301;28;20421;-53
2022/06/25 08:26:15;;;;;;;0.30;0.30;;;;;;;;;;4988989;28;20023;-53
2022/06/25 08:28:42;;;;;;;0.30;0.30;;;;;;;;;;4988994;28;20117;-54
2022/06/25 08:31:08;;;;;;;0.30;0.30;;;;;;;;;;4988585;28;20515;-54
2022/06/25 08:33:34;;;;;;;0.30;0.30;;;;;;;;;;4987895;28;20034;-54
2022/06/25 08:36:00;;;;;;;1.00;0.40;;;;;;;;;;4988979;28;20030;-54
2022/06/25 08:38:26;;;;;;;0.63;0.30;;;;;;;;;;4985767;28;20583;-54
2022/06/25 08:40:59;;;;;;;0.45;0.43;;;;;;;;;;4988605;28;20034;-53
2022/06/25 08:43:26;;;;;;;0.73;0.38;;;;;;;;;;4987265;28;20033;-54
2022/06/25 08:45:54;;;;;;;0.30;0.30;;;;;;;;;;4988828;28;20033;-53
2022/06/25 08:48:24;;;;;;;0.30;0.30;;;;;;;;;;4988284;28;20485;-54
2022/06/25 08:50:51;;;;;;;0.35;0.35;;;;;;;;;;4987202;28;20030;-53
2022/06/25 08:53:18;;;;;;;0.32;0.32;;;;;;;;;;4986942;28;20034;-54
2022/06/25 08:55:46;;;;;;;0.30;0.30;;;;;;;;;;4987138;28;20032;-52
2022/06/25 08:58:13;;;;;;;0.30;0.30;;;;;;;;;;4986519;28;20123;-52
2022/06/25 09:00:41;;;;;;;0.28;0.28;;;;;;;;;;4987292;28;20507;-53
2022/06/25 09:03:08;;;;;;;0.30;0.30;;;;;;;;;;4986956;28;20085;-51
2022/06/25 09:05:35;;;;;;;0.30;0.30;;;;;;;;;;4986721;28;20236;-53
2022/06/25 09:08:02;;;;;;;0.20;0.20;;;;;;;;;;4986448;28;20037;-53
2022/06/25 09:10:29;;;;;;;0.30;0.30;;;;;;;;;;4986785;28;20041;-54
2022/06/25 09:12:56;;;;;;;0.22;0.22;;;;;;;;;;4986470;28;20030;-55
2022/06/25 09:15:28;;;;;;;0.25;0.25;;;;;;;;;;4986494;28;20109;-53
2022/06/25 09:17:56;;;;;;;0.30;0.30;;;;;;;;;;4986432;28;20186;-53
2022/06/25 09:20:23;;;;;;;0.30;0.30;;;;;;;;;;4986473;28;20031;-53
2022/06/25 09:22:54;;;;;;;0.40;0.40;;;;;;;;;;4986317;28;20030;-53
2022/06/25 09:25:24;;;;;;;0.30;0.30;;;;;;;;;;4986421;28;20033;-54
2022/06/25 09:27:50;;;;;;;0.30;0.30;;;;;;;;;;4986044;28;20390;-54
2022/06/25 09:30:19;;;;;;;0.40;0.40;;;;;;;;;;4986251;28;20565;-53
2022/06/25 09:32:50;;;;;;;0.30;0.30;;;;;;;;;;4986433;28;20512;-54
2022/06/25 09:35:36;;;;;;;0.25;0.25;;;;;;;;;;4985826;28;20034;-54
2022/06/25 09:38:06;;;;;;;0.30;0.30;;;;;;;;;;4985718;28;20046;-53
2022/06/25 09:40:33;;;;;;;0.30;0.30;;;;;;;;;;4986118;28;20284;-53
2022/06/25 09:42:59;;;;;;;0.28;0.28;;;;;;;;;;4986022;28;20045;-54
2022/06/25 09:45:26;;;;;;;1.55;1.45;;;;;;;;;;4986377;28;20022;-54
2022/06/25 09:47:54;;;;;;;1.20;1.10;;;;;;;;;;4986023;28;20026;-54
2022/06/25 09:50:21;;;;;;;1.27;0.93;;;;;;;;;;4985689;28;20026;-54
2022/06/25 09:52:55;;;;;;;0.68;0.68;;;;;;;;;;4985901;28;20390;-54
2022/06/25 09:55:22;;;;;;;0.80;0.77;;;;;;;;;;4985965;28;20042;-54
2022/06/25 09:57:49;;;;;;;3.30;2.47;;;;;;;;;;4985649;28;20560;-54
2022/06/25 10:00:16;;;;;;;7.28;4.65;;;;;;;;;;4985657;28;20114;-53
2022/06/25 10:02:42;;;;;;;8.50;4.78;;;;;;;;;;4986473;28;20065;-53
2022/06/25 10:05:09;;;;;;;5.32;4.00;;;;;;;;;;4986078;28;20032;-53
2022/06/25 10:10:21;;;;;;;2.80;2.00;;;;;;;;;;4985976;28;20036;-54
2022/06/25 10:12:48;;;;;;;1.35;1.25;;;;;;;;;;4985706;28;20485;-54
2022/06/25 10:15:16;;;;;;;1.20;1.10;;;;;;;;;;4985419;28;20454;-55
2022/06/25 10:17:43;;;;;;;1.20;1.10;;;;;;;;;;4985166;28;20023;-54
2022/06/25 10:20:09;;;;;;;0.95;0.70;;;;;;;;;;4985968;28;20101;-54
2022/06/25 10:22:37;;;;;;;0.82;0.80;;;;;;;;;;4985559;28;20493;-54
2022/06/25 10:25:03;;;;;;;0.77;0.77;;;;;;;;;;4985592;28;20026;-54
2022/06/25 10:27:38;;;;;;;0.65;0.65;;;;;;;;;;4985669;28;20092;-54
2022/06/25 10:30:04;;;;;;;0.90;0.80;;;;;;;;;;4985413;28;20034;-54
2022/06/25 10:32:34;;;;;;;1.20;0.70;;;;;;;;;;4985573;28;20449;-55
2022/06/25 10:35:04;;;;;;;0.70;0.70;;;;;;;;;;4984101;28;20077;-55
2022/06/25 10:37:52;;;;;;;0.60;0.60;;;;;;;;;;4984889;28;20470;-54
2022/06/25 10:40:18;;;;;;;0.60;0.60;;;;;;;;;;4971183;28;20394;-54
2022/06/25 10:43:00;;;;;;;0.60;0.60;;;;;;;;;;4985610;28;20489;-55
2022/06/25 10:45:26;;;;;;;0.70;0.70;;;;;;;;;;4983845;28;20022;-55
2022/06/25 10:47:54;;;;;;;0.60;0.47;;;;;;;;;;4985282;28;20081;-54
2022/06/25 10:50:22;;;;;;;1.10;0.98;;;;;;;;;;4985842;28;20053;-54
2022/06/25 10:53:07;;;;;;;0.80;0.80;;;;;;;;;;4977131;28;20074;-55
2022/06/25 10:55:38;;;;;;;0.70;0.70;;;;;;;;;;4982308;28;20038;-54
2022/06/25 10:58:12;;;;;;;0.73;0.73;;;;;;;;;;4986043;28;20042;-53
2022/06/25 11:00:48;;;;;;;0.80;0.80;;;;;;;;;;4987127;28;20520;-55
2022/06/25 11:03:14;;;;;;;1.98;1.67;;;;;;;;;;4986067;28;20441;-55
2022/06/25 11:05:42;;;;;;;2.47;2.25;;;;;;;;;;4972145;28;20023;-53
2022/06/25 11:08:08;;;;;;;3.15;1.75;;;;;;;;;;4975288;28;20026;-54
2022/06/25 11:10:35;;;;;;;1.23;1.10;;;;;;;;;;4986337;28;20049;-55
2022/06/25 11:13:01;;;;;;;1.20;1.10;;;;;;;;;;4986064;28;20038;-55
2022/06/25 11:15:38;;;;;;;1.35;1.20;;;;;;;;;;4986904;28;20034;-54
2022/06/25 11:18:08;;;;;;;1.13;1.02;;;;;;;;;;4986884;28;20418;-54
2022/06/25 11:20:34;;;;;;;1.08;0.88;;;;;;;;;;4977338;28;20042;-53
2022/06/25 11:23:02;;;;;;;0.80;0.75;;;;;;;;;;4978176;28;20351;-53
2022/06/25 11:28:48;;;;;;;0.82;0.82;;;;;;;;;;4984295;28;20074;-54
2022/06/25 11:31:11;;;;;;;2.92;2.00;;;;;;;;;;4988258;28;20423;-54
2022/06/25 11:33:37;;;;;;;1.92;1.38;;;;;;;;;;4989503;28;20022;-52
2022/06/25 11:36:13;;;;;;;1.83;1.48;;;;;;;;;;4989629;28;20064;-53
2022/06/25 11:38:40;;;;;;;1.38;1.10;;;;;;;;;;4991421;28;20089;-54
2022/06/25 11:41:06;;;;;;;1.35;1.20;;;;;;;;;;4989245;28;20030;-54
2022/06/25 11:43:35;;;;;;;0.80;0.80;;;;;;;;;;4986991;28;20035;-53
2022/06/25 11:46:02;;;;;;;1.25;0.90;;;;;;;;;;4979794;28;20027;-54
2022/06/25 11:48:29;;;;;;;2.67;1.80;;;;;;;;;;4989875;28;20113;-53
2022/06/25 11:51:03;;;;;;;2.72;2.10;;;;;;;;;;4990726;28;20041;-54
2022/06/25 11:53:29;;;;;;;3.08;1.80;;;;;;;;;;4990101;28;20034;-53
2022/06/25 11:55:58;;;;;;;1.55;1.40;;;;;;;;;;4989053;28;20027;-51
2022/06/25 11:58:26;;;;;;;2.72;1.63;;;;;;;;;;4990133;28;20053;-53
2022/06/25 12:00:54;;;;;;;1.30;1.20;;;;;;;;;;4990130;28;20027;-52
2022/06/25 12:03:23;;;;;;;0.85;0.85;;;;;;;;;;4989929;28;20035;-51
2022/06/25 12:05:49;;;;;;;3.35;2.50;;;;;;;;;;4989476;28;20030;-52
2022/06/25 12:08:16;;;;;;;2.90;1.95;;;;;;;;;;4989520;28;20034;-53
2022/06/25 12:10:45;;;;;;;1.95;1.60;;;;;;;;;;4989820;28;20105;-53
2022/06/25 12:13:14;;;;;;;2.25;1.20;;;;;;;;;;4990667;28;20027;-53
2022/06/25 12:15:40;;;;;;;1.52;1.10;;;;;;;;;;4990018;28;20070;-53
2022/06/25 12:18:07;;;;;;;3.30;1.40;;;;;;;;;;4988344;28;20121;-52
2022/06/25 12:20:33;;;;;;;1.70;1.60;;;;;;;;;;4988930;28;20597;-53
2022/06/25 12:23:00;;;;;;;1.70;1.60;;;;;;;;;;4989710;28;20026;-52
2022/06/25 12:25:30;;;;;;;1.60;1.40;;;;;;;;;;4989530;28;20026;-51
2022/06/25 12:27:57;;;;;;;3.33;2.13;;;;;;;;;;4989324;28;20033;-52
2022/06/25 12:30:24;;;;;;;2.15;1.20;;;;;;;;;;4985747;28;20670;-51
2022/06/25 12:32:51;;;;;;;1.45;1.30;;;;;;;;;;4986793;28;20034;-51
2022/06/25 12:35:18;;;;;;;1.20;1.10;;;;;;;;;;4988413;28;20073;-52
2022/06/25 12:37:44;;;;;;;0.77;0.77;;;;;;;;;;4986573;28;20049;-50
2022/06/25 12:40:11;;;;;;;0.70;0.70;;;;;;;;;;4992603;28;20374;-48
2022/06/25 12:42:37;;;;;;;0.70;0.70;;;;;;;;;;4988438;28;20038;-49
2022/06/25 12:45:03;;;;;;;1.50;0.70;;;;;;;;;;4986353;28;20622;-52
2022/06/25 12:47:41;;;;;;;1.27;0.80;;;;;;;;;;4991382;28;20486;-52
2022/06/25 12:50:20;;;;;;;0.70;0.70;;;;;;;;;;4987407;28;20037;-48
2022/06/25 12:52:46;;;;;;;1.27;0.80;;;;;;;;;;4988474;28;20440;-49
2022/06/25 12:55:24;;;;;;;4.10;0.57;;;;;;;;;;4973784;28;20450;-50
2022/06/25 12:57:50;;;;;;;0.63;0.60;;;;;;;;;;4967529;28;20030;-51
2022/06/25 13:00:23;;;;;;;0.73;0.70;;;;;;;;;;4967278;28;20031;-50
2022/06/25 13:02:50;;;;;;;0.75;0.60;;;;;;;;;;4990706;28;20700;-49
2022/06/25 13:05:17;;;;;;;0.45;0.45;;;;;;;;;;4986817;28;20027;-52
2022/06/25 13:07:43;;;;;;;0.40;0.40;;;;;;;;;;4986858;28;20410;-49
2022/06/25 13:10:10;;;;;;;0.50;0.50;;;;;;;;;;4988253;28;20066;-49
2022/06/25 13:12:37;;;;;;;0.30;0.30;;;;;;;;;;4986879;28;20026;-49
2022/06/25 13:15:03;;;;;;;0.50;0.50;;;;;;;;;;4988028;28;20148;-49
2022/06/25 13:17:30;;;;;;;0.73;0.43;;;;;;;;;;4988253;28;20042;-50
2022/06/25 13:19:57;;;;;;;0.50;0.50;;;;;;;;;;4987665;28;20030;-52
2022/06/25 13:22:24;;;;;;;2.22;0.73;;;;;;;;;;4975805;28;20513;-48
2022/06/25 13:24:51;;;;;;;0.57;0.40;;;;;;;;;;4985079;28;20041;-49
2022/06/25 13:27:17;;;;;;;1.92;0.60;;;;;;;;;;4977098;28;20030;-48
2022/06/25 13:29:45;;;;;;;2.42;0.60;;;;;;;;;;4985908;28;20022;-49
2022/06/25 13:32:16;;;;;;;0.32;0.32;;;;;;;;;;4986132;28;20030;-49
2022/06/25 13:34:42;;;;;;;0.70;0.57;;;;;;;;;;4986645;28;20141;-52
2022/06/25 13:37:08;;;;;;;0.60;0.50;;;;;;;;;;4988083;28;20027;-50
2022/06/25 13:39:34;;;;;;;0.50;0.50;;;;;;;;;;4987515;28;20056;-49
2022/06/25 13:42:00;;;;;;;0.40;0.38;;;;;;;;;;4987234;28;20641;-48
2022/06/25 13:44:26;;;;;;;1.55;0.50;;;;;;;;;;4987627;28;20501;-52
2022/06/25 13:46:52;;;;;;;0.50;0.50;;;;;;;;;;4986901;28;20470;-49
2022/06/25 13:49:18;;;;;;;1.23;0.70;;;;;;;;;;4987176;28;20085;-52
2022/06/25 13:51:45;;;;;;;0.50;0.50;;;;;;;;;;4986233;28;20042;-50
2022/06/25 13:54:11;;;;;;;0.68;0.50;;;;;;;;;;4987850;28;20113;-50
2022/06/25 13:56:38;;;;;;;0.40;0.40;;;;;;;;;;4987056;28;20468;-51
2022/06/25 13:59:04;;;;;;;0.70;0.50;;;;;;;;;;4986953;28;20045;-48
2022/06/25 14:01:30;;;;;;;0.32;0.32;;;;;;;;;;4987921;28;20034;-52
2022/06/25 14:03:56;;;;;;;0.47;0.35;;;;;;;;;;4987180;28;20644;-50
2022/06/25 14:06:22;;;;;;;1.00;0.45;;;;;;;;;;4982325;28;20030;-51
2022/06/25 14:08:48;;;;;;;0.60;0.60;;;;;;;;;;4987260;28;20048;-50
2022/06/25 14:11:14;;;;;;;0.52;0.43;;;;;;;;;;4986810;28;20725;-51
2022/06/25 14:13:41;;;;;;;0.85;0.65;;;;;;;;;;4987664;28;20031;-52
2022/06/25 14:16:07;;;;;;;0.68;0.50;;;;;;;;;;4986978;28;20037;-51
2022/06/25 14:18:33;;;;;;;0.90;0.68;;;;;;;;;;4986493;28;20038;-49
2022/06/25 14:21:01;;;;;;;0.77;0.55;;;;;;;;;;4986769;28;20567;-50
2022/06/25 14:23:27;;;;;;;0.73;0.68;;;;;;;;;;4983037;28;20027;-49
2022/06/25 14:25:53;;;;;;;0.57;0.50;;;;;;;;;;4983192;28;20034;-50
2022/06/25 14:28:19;;;;;;;0.50;0.50;;;;;;;;;;4987371;28;20648;-51
2022/06/25 14:30:46;;;;;;;0.63;0.55;;;;;;;;;;4987153;28;20113;-49
2022/06/25 14:33:12;;;;;;;1.25;0.57;;;;;;;;;;4987433;28;20509;-49
2022/06/25 14:35:39;;;;;;;0.50;0.50;;;;;;;;;;4986986;28;20037;-52
2022/06/25 14:43:34;;;;;;;0.35;0.35;;;;;;;;;;4987380;28;20112;-51
2022/06/25 14:46:00;;;;;;;0.60;0.50;;;;;;;;;;4983179;28;20022;-50
2022/06/25 14:48:27;;;;;;;0.73;0.43;;;;;;;;;;4985299;28;20477;-50
2022/06/25 14:50:53;;;;;;;0.57;0.57;;;;;;;;;;4987137;28;20040;-51
2022/06/25 14:53:19;;;;;;;0.43;0.43;;;;;;;;;;4979784;28;20394;-52
2022/06/25 14:55:47;;;;;;;0.55;0.40;;;;;;;;;;4988440;28;20034;-52
2022/06/25 14:58:13;;;;;;;0.40;0.40;;;;;;;;;;4986264;28;20040;-52
2022/06/25 15:00:39;;;;;;;1.05;0.50;;;;;;;;;;4987475;28;20559;-51